sensor_id;sensor_type;location;lat;lon;timestamp;temperature;humidity
20568;DHT22;10442;49.932;11.592;2023-04-05T00:00:45;1.20;59.30
20568;DHT22;10442;49.932;11.592;2023-04-05T00:03:13;1.10;59.30
20568;DHT22;10442;49.932;11.592;2023-04-05T00:05:40;1.10;59.60
20568;DHT22;10442;49.932;11.592;2023-04-05T00:08:07;1.10;59.60
20568;DHT22;10442;49.932;11.592;2023-04-05T00:10:39;1.10;59.60
20568;DHT22;10442;49.932;11.592;2023-04-05T00:13:07;1.10;59.70
20568;DHT22;10442;49.932;11.592;2023-04-05T00:15:35;1.10;60.20
20568;DHT22;10442;49.932;11.592;2023-04-05T00:18:02;1.10;60.70
20568;DHT22;10442;49.932;11.592;2023-04-05T00:20:30;1.10;60.50
20568;DHT22;10442;49.932;11.592;2023-04-05T00:22:57;1.00;60.20
20568;DHT22;10442;49.932;11.592;2023-04-05T00:25:24;1.00;60.00
20568;DHT22;10442;49.932;11.592;2023-04-05T00:27:52;1.00;60.50
20568;DHT22;10442;49.932;11.592;2023-04-05T00:30:19;1.00;60.70
20568;DHT22;10442;49.932;11.592;2023-04-05T00:32:48;1.00;60.70
20568;DHT22;10442;49.932;11.592;2023-04-05T00:35:16;0.90;60.80
20568;DHT22;10442;49.932;11.592;2023-04-05T00:37:43;0.90;61.10
20568;DHT22;10442;49.932;11.592;2023-04-05T00:40:11;0.90;61.20
20568;DHT22;10442;49.932;11.592;2023-04-05T00:42:39;0.90;61.20
20568;DHT22;10442;49.932;11.592;2023-04-05T00:45:06;0.80;61.20
20568;DHT22;10442;49.932;11.592;2023-04-05T00:47:34;0.80;61.30
20568;DHT22;10442;49.932;11.592;2023-04-05T00:50:02;0.80;61.40
20568;DHT22;10442;49.932;11.592;2023-04-05T00:52:29;0.80;61.30
20568;DHT22;10442;49.932;11.592;2023-04-05T00:54:58;0.80;61.50
20568;DHT22;10442;49.932;11.592;2023-04-05T00:57:25;0.70;61.40
20568;DHT22;10442;49.932;11.592;2023-04-05T00:59:58;0.70;61.40
20568;DHT22;10442;49.932;11.592;2023-04-05T01:02:35;0.70;61.10
20568;DHT22;10442;49.932;11.592;2023-04-05T01:05:20;0.70;61.20
20568;DHT22;10442;49.932;11.592;2023-04-05T01:07:58;0.60;61.30
20568;DHT22;10442;49.932;11.592;2023-04-05T01:10:43;0.60;61.20
20568;DHT22;10442;49.932;11.592;2023-04-05T01:13:11;0.60;61.40
20568;DHT22;10442;49.932;11.592;2023-04-05T01:15:39;0.60;61.10
20568;DHT22;10442;49.932;11.592;2023-04-05T01:18:07;0.60;61.20
20568;DHT22;10442;49.932;11.592;2023-04-05T01:20:41;0.50;61.20
20568;DHT22;10442;49.932;11.592;2023-04-05T01:26:52;0.50;61.80
20568;DHT22;10442;49.932;11.592;2023-04-05T01:29:39;0.40;61.80
20568;DHT22;10442;49.932;11.592;2023-04-05T01:32:43;0.40;61.70
20568;DHT22;10442;49.932;11.592;2023-04-05T01:38:03;0.30;61.90
20568;DHT22;10442;49.932;11.592;2023-04-05T01:40:34;0.30;61.40
20568;DHT22;10442;49.932;11.592;2023-04-05T01:43:14;0.30;61.50
20568;DHT22;10442;49.932;11.592;2023-04-05T01:45:43;0.30;62.20
20568;DHT22;10442;49.932;11.592;2023-04-05T01:48:11;0.30;62.30
20568;DHT22;10442;49.932;11.592;2023-04-05T01:50:39;0.30;62.50
20568;DHT22;10442;49.932;11.592;2023-04-05T01:53:07;0.20;62.50
20568;DHT22;10442;49.932;11.592;2023-04-05T01:55:35;0.30;62.60
20568;DHT22;10442;49.932;11.592;2023-04-05T01:58:02;0.20;62.30
20568;DHT22;10442;49.932;11.592;2023-04-05T02:00:30;0.20;62.40
20568;DHT22;10442;49.932;11.592;2023-04-05T02:02:57;0.20;62.60
20568;DHT22;10442;49.932;11.592;2023-04-05T02:05:25;0.20;62.50
20568;DHT22;10442;49.932;11.592;2023-04-05T02:07:52;0.20;62.40
20568;DHT22;10442;49.932;11.592;2023-04-05T02:10:23;0.10;62.30
20568;DHT22;10442;49.932;11.592;2023-04-05T02:12:50;0.10;62.40
20568;DHT22;10442;49.932;11.592;2023-04-05T02:15:18;0.10;62.40
20568;DHT22;10442;49.932;11.592;2023-04-05T02:17:45;0.00;62.40
20568;DHT22;10442;49.932;11.592;2023-04-05T02:20:13;0.00;62.50
20568;DHT22;10442;49.932;11.592;2023-04-05T02:22:41;-0.10;62.40
20568;DHT22;10442;49.932;11.592;2023-04-05T02:25:11;-0.10;62.50
20568;DHT22;10442;49.932;11.592;2023-04-05T02:27:39;-0.10;62.50
20568;DHT22;10442;49.932;11.592;2023-04-05T02:30:07;-0.20;62.40
20568;DHT22;10442;49.932;11.592;2023-04-05T02:32:35;-0.10;62.60
20568;DHT22;10442;49.932;11.592;2023-04-05T02:35:03;-0.20;62.90
20568;DHT22;10442;49.932;11.592;2023-04-05T02:37:30;-0.20;63.00
20568;DHT22;10442;49.932;11.592;2023-04-05T02:39:58;-0.10;63.30
20568;DHT22;10442;49.932;11.592;2023-04-05T02:42:25;-0.20;63.50
20568;DHT22;10442;49.932;11.592;2023-04-05T02:44:52;-0.20;63.40
20568;DHT22;10442;49.932;11.592;2023-04-05T02:47:21;-0.30;63.30
20568;DHT22;10442;49.932;11.592;2023-04-05T02:49:57;-0.30;63.30
20568;DHT22;10442;49.932;11.592;2023-04-05T02:52:27;-0.30;63.30
20568;DHT22;10442;49.932;11.592;2023-04-05T02:54:54;-0.30;63.30
20568;DHT22;10442;49.932;11.592;2023-04-05T02:57:27;-0.30;63.30
20568;DHT22;10442;49.932;11.592;2023-04-05T03:00:02;-0.40;63.50
20568;DHT22;10442;49.932;11.592;2023-04-05T03:02:32;-0.40;63.40
20568;DHT22;10442;49.932;11.592;2023-04-05T03:05:00;-0.40;63.50
20568;DHT22;10442;49.932;11.592;2023-04-05T03:07:30;-0.40;64.30
20568;DHT22;10442;49.932;11.592;2023-04-05T03:10:00;-0.40;63.90
20568;DHT22;10442;49.932;11.592;2023-04-05T03:12:29;-0.40;63.80
20568;DHT22;10442;49.932;11.592;2023-04-05T03:14:57;-0.40;63.70
20568;DHT22;10442;49.932;11.592;2023-04-05T03:17:25;-0.30;63.60
20568;DHT22;10442;49.932;11.592;2023-04-05T03:20:00;-0.50;63.50
20568;DHT22;10442;49.932;11.592;2023-04-05T03:22:35;-0.50;63.60
20568;DHT22;10442;49.932;11.592;2023-04-05T03:25:03;-0.50;63.80
20568;DHT22;10442;49.932;11.592;2023-04-05T03:27:32;-0.50;64.00
20568;DHT22;10442;49.932;11.592;2023-04-05T03:30:05;-0.50;64.00
20568;DHT22;10442;49.932;11.592;2023-04-05T03:32:37;-0.50;64.20
20568;DHT22;10442;49.932;11.592;2023-04-05T03:35:20;-0.50;64.10
20568;DHT22;10442;49.932;11.592;2023-04-05T03:37:49;-0.50;64.00
20568;DHT22;10442;49.932;11.592;2023-04-05T03:40:17;-0.50;64.10
20568;DHT22;10442;49.932;11.592;2023-04-05T03:42:45;-0.50;64.00
20568;DHT22;10442;49.932;11.592;2023-04-05T03:45:13;-0.60;63.90
20568;DHT22;10442;49.932;11.592;2023-04-05T03:47:41;-0.60;63.90
20568;DHT22;10442;49.932;11.592;2023-04-05T03:50:09;-0.60;64.10
20568;DHT22;10442;49.932;11.592;2023-04-05T03:52:36;-0.60;64.20
20568;DHT22;10442;49.932;11.592;2023-04-05T03:55:05;-0.50;64.50
20568;DHT22;10442;49.932;11.592;2023-04-05T03:57:36;-0.70;64.50
20568;DHT22;10442;49.932;11.592;2023-04-05T04:00:17;-0.70;64.50
20568;DHT22;10442;49.932;11.592;2023-04-05T04:03:00;-0.70;64.30
20568;DHT22;10442;49.932;11.592;2023-04-05T04:05:28;-0.70;64.30
20568;DHT22;10442;49.932;11.592;2023-04-05T04:07:55;-0.70;64.30
20568;DHT22;10442;49.932;11.592;2023-04-05T04:10:23;-0.70;64.30
20568;DHT22;10442;49.932;11.592;2023-04-05T04:12:54;-0.80;64.20
20568;DHT22;10442;49.932;11.592;2023-04-05T04:15:26;-0.80;64.10
20568;DHT22;10442;49.932;11.592;2023-04-05T04:18:14;-0.80;64.00
20568;DHT22;10442;49.932;11.592;2023-04-05T04:21:11;-0.80;64.20
20568;DHT22;10442;49.932;11.592;2023-04-05T04:23:58;-0.80;64.50
20568;DHT22;10442;49.932;11.592;2023-04-05T04:27:02;-0.90;64.40
20568;DHT22;10442;49.932;11.592;2023-04-05T04:29:48;-0.90;64.20
20568;DHT22;10442;49.932;11.592;2023-04-05T04:32:34;-0.90;64.20
20568;DHT22;10442;49.932;11.592;2023-04-05T04:35:32;-0.90;64.30
20568;DHT22;10442;49.932;11.592;2023-04-05T04:38:11;-0.90;64.30
20568;DHT22;10442;49.932;11.592;2023-04-05T04:41:13;-0.90;64.40
20568;DHT22;10442;49.932;11.592;2023-04-05T04:43:59;-0.90;64.40
20568;DHT22;10442;49.932;11.592;2023-04-05T04:46:35;-0.90;64.80
20568;DHT22;10442;49.932;11.592;2023-04-05T04:49:15;-0.90;65.40
20568;DHT22;10442;49.932;11.592;2023-04-05T04:51:47;-0.80;65.40
20568;DHT22;10442;49.932;11.592;2023-04-05T04:54:16;-0.80;65.30
20568;DHT22;10442;49.932;11.592;2023-04-05T04:56:46;-0.70;65.50
20568;DHT22;10442;49.932;11.592;2023-04-05T04:59:14;-0.70;65.50
20568;DHT22;10442;49.932;11.592;2023-04-05T05:01:45;-0.60;65.50
20568;DHT22;10442;49.932;11.592;2023-04-05T05:04:12;-0.60;65.60
20568;DHT22;10442;49.932;11.592;2023-04-05T05:06:41;-0.50;65.70
20568;DHT22;10442;49.932;11.592;2023-04-05T05:09:08;-0.40;65.90
20568;DHT22;10442;49.932;11.592;2023-04-05T05:11:46;-0.30;66.00
20568;DHT22;10442;49.932;11.592;2023-04-05T05:14:14;-0.20;65.90
20568;DHT22;10442;49.932;11.592;2023-04-05T05:16:41;-0.20;65.90
20568;DHT22;10442;49.932;11.592;2023-04-05T05:19:09;-0.10;65.80
20568;DHT22;10442;49.932;11.592;2023-04-05T05:21:44;0.00;65.90
20568;DHT22;10442;49.932;11.592;2023-04-05T05:24:13;0.10;66.00
20568;DHT22;10442;49.932;11.592;2023-04-05T05:26:41;0.10;65.90
20568;DHT22;10442;49.932;11.592;2023-04-05T05:29:08;0.20;65.70
20568;DHT22;10442;49.932;11.592;2023-04-05T05:31:40;0.30;65.80
20568;DHT22;10442;49.932;11.592;2023-04-05T05:34:07;0.40;65.90
20568;DHT22;10442;49.932;11.592;2023-04-05T05:36:36;0.50;65.90
20568;DHT22;10442;49.932;11.592;2023-04-05T05:39:04;0.60;66.00
20568;DHT22;10442;49.932;11.592;2023-04-05T05:41:32;0.70;66.10
20568;DHT22;10442;49.932;11.592;2023-04-05T05:44:00;0.80;66.00
20568;DHT22;10442;49.932;11.592;2023-04-05T05:46:28;0.80;66.20
20568;DHT22;10442;49.932;11.592;2023-04-05T05:48:55;0.90;66.00
20568;DHT22;10442;49.932;11.592;2023-04-05T05:51:23;1.00;65.80
20568;DHT22;10442;49.932;11.592;2023-04-05T05:53:50;1.10;65.80
20568;DHT22;10442;49.932;11.592;2023-04-05T05:56:17;1.20;65.70
20568;DHT22;10442;49.932;11.592;2023-04-05T05:58:45;1.30;65.60
20568;DHT22;10442;49.932;11.592;2023-04-05T06:01:12;1.30;65.60
20568;DHT22;10442;49.932;11.592;2023-04-05T06:03:40;1.40;65.50
20568;DHT22;10442;49.932;11.592;2023-04-05T06:06:08;1.50;65.50
20568;DHT22;10442;49.932;11.592;2023-04-05T06:08:37;1.60;65.50
20568;DHT22;10442;49.932;11.592;2023-04-05T06:11:04;1.70;65.40
20568;DHT22;10442;49.932;11.592;2023-04-05T06:13:32;1.80;65.20
20568;DHT22;10442;49.932;11.592;2023-04-05T06:16:00;1.90;65.00
20568;DHT22;10442;49.932;11.592;2023-04-05T06:18:28;2.00;64.90
20568;DHT22;10442;49.932;11.592;2023-04-05T06:20:55;2.10;64.90
20568;DHT22;10442;49.932;11.592;2023-04-05T06:23:22;2.20;64.90
20568;DHT22;10442;49.932;11.592;2023-04-05T06:25:50;2.40;65.00
20568;DHT22;10442;49.932;11.592;2023-04-05T06:28:17;2.70;65.10
20568;DHT22;10442;49.932;11.592;2023-04-05T06:30:45;2.90;65.00
20568;DHT22;10442;49.932;11.592;2023-04-05T06:33:12;3.30;64.50
20568;DHT22;10442;49.932;11.592;2023-04-05T06:35:40;3.60;64.60
20568;DHT22;10442;49.932;11.592;2023-04-05T06:38:07;4.00;63.50
20568;DHT22;10442;49.932;11.592;2023-04-05T06:40:35;4.50;63.30
20568;DHT22;10442;49.932;11.592;2023-04-05T06:43:03;5.00;63.10
20568;DHT22;10442;49.932;11.592;2023-04-05T06:45:31;5.60;62.30
20568;DHT22;10442;49.932;11.592;2023-04-05T06:47:59;6.10;60.60
20568;DHT22;10442;49.932;11.592;2023-04-05T06:50:27;6.70;59.50
20568;DHT22;10442;49.932;11.592;2023-04-05T06:52:54;7.20;58.30
20568;DHT22;10442;49.932;11.592;2023-04-05T06:55:21;7.70;57.60
20568;DHT22;10442;49.932;11.592;2023-04-05T06:57:49;8.30;56.90
20568;DHT22;10442;49.932;11.592;2023-04-05T07:00:16;8.90;54.90
20568;DHT22;10442;49.932;11.592;2023-04-05T07:02:44;9.60;54.40
20568;DHT22;10442;49.932;11.592;2023-04-05T07:05:12;10.20;53.60
20568;DHT22;10442;49.932;11.592;2023-04-05T07:07:41;10.90;52.70
20568;DHT22;10442;49.932;11.592;2023-04-05T07:10:10;11.50;51.40
20568;DHT22;10442;49.932;11.592;2023-04-05T07:12:38;12.10;50.70
20568;DHT22;10442;49.932;11.592;2023-04-05T07:15:06;12.70;49.40
20568;DHT22;10442;49.932;11.592;2023-04-05T07:17:34;13.20;48.10
20568;DHT22;10442;49.932;11.592;2023-04-05T07:20:02;13.70;46.80
20568;DHT22;10442;49.932;11.592;2023-04-05T07:22:32;14.20;46.50
20568;DHT22;10442;49.932;11.592;2023-04-05T07:25:01;14.70;45.10
20568;DHT22;10442;49.932;11.592;2023-04-05T07:27:29;15.10;44.10
20568;DHT22;10442;49.932;11.592;2023-04-05T07:29:57;15.50;43.50
20568;DHT22;10442;49.932;11.592;2023-04-05T07:32:24;15.90;42.90
20568;DHT22;10442;49.932;11.592;2023-04-05T07:34:52;16.30;42.30
20568;DHT22;10442;49.932;11.592;2023-04-05T07:37:19;16.70;41.40
20568;DHT22;10442;49.932;11.592;2023-04-05T07:39:47;17.10;40.50
20568;DHT22;10442;49.932;11.592;2023-04-05T07:42:14;17.50;39.60
20568;DHT22;10442;49.932;11.592;2023-04-05T07:44:44;17.80;39.20
20568;DHT22;10442;49.932;11.592;2023-04-05T07:47:12;18.10;38.00
20568;DHT22;10442;49.932;11.592;2023-04-05T07:49:39;18.40;36.90
20568;DHT22;10442;49.932;11.592;2023-04-05T07:52:06;18.60;36.80
20568;DHT22;10442;49.932;11.592;2023-04-05T07:54:34;18.80;36.30
20568;DHT22;10442;49.932;11.592;2023-04-05T07:57:04;19.00;36.00
20568;DHT22;10442;49.932;11.592;2023-04-05T07:59:33;19.10;35.60
20568;DHT22;10442;49.932;11.592;2023-04-05T08:02:02;19.20;35.30
20568;DHT22;10442;49.932;11.592;2023-04-05T08:04:40;19.20;34.90
20568;DHT22;10442;49.932;11.592;2023-04-05T08:07:08;19.30;34.90
20568;DHT22;10442;49.932;11.592;2023-04-05T08:09:36;19.40;34.70
20568;DHT22;10442;49.932;11.592;2023-04-05T08:12:03;19.50;33.90
20568;DHT22;10442;49.932;11.592;2023-04-05T08:14:31;19.70;33.60
20568;DHT22;10442;49.932;11.592;2023-04-05T08:16:58;19.80;33.20
20568;DHT22;10442;49.932;11.592;2023-04-05T08:19:26;20.00;32.50
20568;DHT22;10442;49.932;11.592;2023-04-05T08:21:53;20.00;31.50
20568;DHT22;10442;49.932;11.592;2023-04-05T08:24:21;20.00;30.80
20568;DHT22;10442;49.932;11.592;2023-04-05T08:26:48;20.00;30.40
20568;DHT22;10442;49.932;11.592;2023-04-05T08:29:16;19.90;29.70
20568;DHT22;10442;49.932;11.592;2023-04-05T08:31:43;19.90;29.80
20568;DHT22;10442;49.932;11.592;2023-04-05T08:34:11;19.90;29.30
20568;DHT22;10442;49.932;11.592;2023-04-05T08:36:39;19.90;29.70
20568;DHT22;10442;49.932;11.592;2023-04-05T08:39:06;20.00;29.30
20568;DHT22;10442;49.932;11.592;2023-04-05T08:41:41;20.00;29.30
20568;DHT22;10442;49.932;11.592;2023-04-05T08:44:14;20.10;28.90
20568;DHT22;10442;49.932;11.592;2023-04-05T08:46:42;20.00;28.20
20568;DHT22;10442;49.932;11.592;2023-04-05T08:49:10;19.90;28.60
20568;DHT22;10442;49.932;11.592;2023-04-05T08:51:38;19.90;28.60
20568;DHT22;10442;49.932;11.592;2023-04-05T08:54:05;19.90;28.20
20568;DHT22;10442;49.932;11.592;2023-04-05T08:56:34;20.00;28.00
20568;DHT22;10442;49.932;11.592;2023-04-05T08:59:07;20.00;27.90
20568;DHT22;10442;49.932;11.592;2023-04-05T09:01:38;19.90;27.70
20568;DHT22;10442;49.932;11.592;2023-04-05T09:04:21;19.90;27.80
20568;DHT22;10442;49.932;11.592;2023-04-05T09:06:56;19.60;27.10
20568;DHT22;10442;49.932;11.592;2023-04-05T09:09:24;19.20;27.10
20568;DHT22;10442;49.932;11.592;2023-04-05T09:11:52;18.80;27.20
20568;DHT22;10442;49.932;11.592;2023-04-05T09:14:20;18.40;27.40
20568;DHT22;10442;49.932;11.592;2023-04-05T09:16:48;18.00;27.60
20568;DHT22;10442;49.932;11.592;2023-04-05T09:19:15;17.50;28.20
20568;DHT22;10442;49.932;11.592;2023-04-05T09:22:06;17.00;28.60
20568;DHT22;10442;49.932;11.592;2023-04-05T09:24:39;16.60;28.60
20568;DHT22;10442;49.932;11.592;2023-04-05T09:27:12;16.30;28.80
20568;DHT22;10442;49.932;11.592;2023-04-05T09:29:41;16.00;29.00
20568;DHT22;10442;49.932;11.592;2023-04-05T09:32:10;15.70;29.10
20568;DHT22;10442;49.932;11.592;2023-04-05T09:34:39;15.60;29.70
20568;DHT22;10442;49.932;11.592;2023-04-05T09:37:13;15.60;30.90
20568;DHT22;10442;49.932;11.592;2023-04-05T09:39:41;15.50;29.80
20568;DHT22;10442;49.932;11.592;2023-04-05T09:42:13;15.40;29.40
20568;DHT22;10442;49.932;11.592;2023-04-05T09:45:00;15.30;29.70
20568;DHT22;10442;49.932;11.592;2023-04-05T09:47:33;15.20;29.80
20568;DHT22;10442;49.932;11.592;2023-04-05T09:50:17;15.10;30.30
20568;DHT22;10442;49.932;11.592;2023-04-05T09:52:45;15.10;30.30
20568;DHT22;10442;49.932;11.592;2023-04-05T09:55:13;15.10;30.10
20568;DHT22;10442;49.932;11.592;2023-04-05T09:57:40;15.10;30.20
20568;DHT22;10442;49.932;11.592;2023-04-05T10:00:18;15.10;30.90
20568;DHT22;10442;49.932;11.592;2023-04-05T10:02:52;15.10;30.70
20568;DHT22;10442;49.932;11.592;2023-04-05T10:05:23;15.20;30.80
20568;DHT22;10442;49.932;11.592;2023-04-05T10:07:51;15.20;30.30
20568;DHT22;10442;49.932;11.592;2023-04-05T10:10:21;15.10;30.40
20568;DHT22;10442;49.932;11.592;2023-04-05T10:12:49;15.00;30.30
20568;DHT22;10442;49.932;11.592;2023-04-05T10:15:17;14.80;30.40
20568;DHT22;10442;49.932;11.592;2023-04-05T10:18:09;14.70;30.90
20568;DHT22;10442;49.932;11.592;2023-04-05T10:20:43;14.50;30.80
20568;DHT22;10442;49.932;11.592;2023-04-05T10:23:21;14.30;30.80
20568;DHT22;10442;49.932;11.592;2023-04-05T10:33:43;13.90;30.50
20568;DHT22;10442;49.932;11.592;2023-04-05T10:38:56;13.50;31.40
20568;DHT22;10442;49.932;11.592;2023-04-05T10:41:32;13.40;31.70
20568;DHT22;10442;49.932;11.592;2023-04-05T10:44:02;13.40;32.10
20568;DHT22;10442;49.932;11.592;2023-04-05T10:46:45;13.40;32.10
20568;DHT22;10442;49.932;11.592;2023-04-05T10:49:42;13.40;32.00
20568;DHT22;10442;49.932;11.592;2023-04-05T10:52:12;13.30;32.30
20568;DHT22;10442;49.932;11.592;2023-04-05T10:54:40;13.20;31.90
20568;DHT22;10442;49.932;11.592;2023-04-05T10:57:09;13.10;32.00
20568;DHT22;10442;49.932;11.592;2023-04-05T10:59:45;12.90;32.50
20568;DHT22;10442;49.932;11.592;2023-04-05T11:02:13;12.80;32.50
20568;DHT22;10442;49.932;11.592;2023-04-05T11:04:41;12.60;32.60
20568;DHT22;10442;49.932;11.592;2023-04-05T11:07:16;12.40;33.00
20568;DHT22;10442;49.932;11.592;2023-04-05T11:10:03;12.40;33.00
20568;DHT22;10442;49.932;11.592;2023-04-05T11:20:48;12.10;34.10
20568;DHT22;10442;49.932;11.592;2023-04-05T11:23:23;12.10;34.30
20568;DHT22;10442;49.932;11.592;2023-04-05T11:25:52;12.20;34.60
20568;DHT22;10442;49.932;11.592;2023-04-05T11:28:24;12.30;35.20
20568;DHT22;10442;49.932;11.592;2023-04-05T11:30:54;12.30;35.50
20568;DHT22;10442;49.932;11.592;2023-04-05T11:36:03;12.50;34.60
20568;DHT22;10442;49.932;11.592;2023-04-05T11:38:30;12.60;34.90
20568;DHT22;10442;49.932;11.592;2023-04-05T11:41:13;12.60;33.70
20568;DHT22;10442;49.932;11.592;2023-04-05T11:43:44;12.60;34.30
20568;DHT22;10442;49.932;11.592;2023-04-05T11:46:14;12.60;33.90
20568;DHT22;10442;49.932;11.592;2023-04-05T11:48:41;12.70;33.70
20568;DHT22;10442;49.932;11.592;2023-04-05T11:51:09;12.70;33.50
20568;DHT22;10442;49.932;11.592;2023-04-05T11:53:37;12.80;33.40
20568;DHT22;10442;49.932;11.592;2023-04-05T11:56:11;12.90;33.30
20568;DHT22;10442;49.932;11.592;2023-04-05T11:58:41;13.00;33.60
20568;DHT22;10442;49.932;11.592;2023-04-05T12:01:09;13.00;34.70
20568;DHT22;10442;49.932;11.592;2023-04-05T12:03:37;13.00;34.30
20568;DHT22;10442;49.932;11.592;2023-04-05T12:06:05;13.00;34.30
20568;DHT22;10442;49.932;11.592;2023-04-05T12:08:39;13.10;33.90
20568;DHT22;10442;49.932;11.592;2023-04-05T12:11:09;13.30;33.60
20568;DHT22;10442;49.932;11.592;2023-04-05T12:13:38;13.30;33.20
20568;DHT22;10442;49.932;11.592;2023-04-05T12:16:07;13.40;32.60
20568;DHT22;10442;49.932;11.592;2023-04-05T12:18:36;13.40;32.00
20568;DHT22;10442;49.932;11.592;2023-04-05T12:21:08;13.40;31.70
20568;DHT22;10442;49.932;11.592;2023-04-05T12:23:36;13.40;31.70
20568;DHT22;10442;49.932;11.592;2023-04-05T12:26:06;13.40;32.40
20568;DHT22;10442;49.932;11.592;2023-04-05T12:28:50;13.50;33.00
20568;DHT22;10442;49.932;11.592;2023-04-05T12:31:40;13.60;33.70
20568;DHT22;10442;49.932;11.592;2023-04-05T12:34:09;13.70;33.30
20568;DHT22;10442;49.932;11.592;2023-04-05T12:36:38;13.80;32.30
20568;DHT22;10442;49.932;11.592;2023-04-05T12:39:09;13.90;32.60
20568;DHT22;10442;49.932;11.592;2023-04-05T12:41:37;14.00;31.90
20568;DHT22;10442;49.932;11.592;2023-04-05T12:44:14;14.10;31.70
20568;DHT22;10442;49.932;11.592;2023-04-05T12:46:43;14.20;30.70
20568;DHT22;10442;49.932;11.592;2023-04-05T12:49:14;14.20;30.50
20568;DHT22;10442;49.932;11.592;2023-04-05T12:51:46;14.20;31.20
20568;DHT22;10442;49.932;11.592;2023-04-05T12:54:20;14.20;31.70
20568;DHT22;10442;49.932;11.592;2023-04-05T12:56:50;14.30;31.80
20568;DHT22;10442;49.932;11.592;2023-04-05T12:59:22;14.30;31.60
20568;DHT22;10442;49.932;11.592;2023-04-05T13:01:50;14.40;31.50
20568;DHT22;10442;49.932;11.592;2023-04-05T13:04:18;14.50;31.00
20568;DHT22;10442;49.932;11.592;2023-04-05T13:06:45;14.50;31.20
20568;DHT22;10442;49.932;11.592;2023-04-05T13:09:16;14.60;31.20
20568;DHT22;10442;49.932;11.592;2023-04-05T13:11:43;14.50;30.70
20568;DHT22;10442;49.932;11.592;2023-04-05T13:14:11;14.50;30.60
20568;DHT22;10442;49.932;11.592;2023-04-05T13:16:38;14.50;30.60
20568;DHT22;10442;49.932;11.592;2023-04-05T13:19:06;14.50;30.60
20568;DHT22;10442;49.932;11.592;2023-04-05T13:21:33;14.50;30.60
20568;DHT22;10442;49.932;11.592;2023-04-05T13:24:01;14.50;31.00
20568;DHT22;10442;49.932;11.592;2023-04-05T13:26:28;14.50;31.10
20568;DHT22;10442;49.932;11.592;2023-04-05T13:28:56;14.40;31.00
20568;DHT22;10442;49.932;11.592;2023-04-05T13:31:23;14.40;31.20
20568;DHT22;10442;49.932;11.592;2023-04-05T13:33:51;14.30;31.10
20568;DHT22;10442;49.932;11.592;2023-04-05T13:36:18;14.20;30.00
20568;DHT22;10442;49.932;11.592;2023-04-05T13:38:45;14.00;30.30
20568;DHT22;10442;49.932;11.592;2023-04-05T13:41:13;13.80;30.20
20568;DHT22;10442;49.932;11.592;2023-04-05T13:43:42;13.70;30.60
20568;DHT22;10442;49.932;11.592;2023-04-05T13:46:09;13.60;31.10
20568;DHT22;10442;49.932;11.592;2023-04-05T13:48:37;13.60;31.90
20568;DHT22;10442;49.932;11.592;2023-04-05T13:51:05;13.50;31.50
20568;DHT22;10442;49.932;11.592;2023-04-05T13:53:32;13.40;31.60
20568;DHT22;10442;49.932;11.592;2023-04-05T13:55:59;13.40;31.50
20568;DHT22;10442;49.932;11.592;2023-04-05T13:58:27;13.30;31.50
20568;DHT22;10442;49.932;11.592;2023-04-05T14:00:55;13.30;31.70
20568;DHT22;10442;49.932;11.592;2023-04-05T14:03:23;13.30;31.90
20568;DHT22;10442;49.932;11.592;2023-04-05T14:05:52;13.20;32.00
20568;DHT22;10442;49.932;11.592;2023-04-05T14:08:21;13.20;32.10
20568;DHT22;10442;49.932;11.592;2023-04-05T14:10:49;13.20;32.90
20568;DHT22;10442;49.932;11.592;2023-04-05T14:13:16;13.20;32.30
20568;DHT22;10442;49.932;11.592;2023-04-05T14:15:44;13.20;32.20
20568;DHT22;10442;49.932;11.592;2023-04-05T14:18:12;13.30;32.10
20568;DHT22;10442;49.932;11.592;2023-04-05T14:20:40;13.30;31.70
20568;DHT22;10442;49.932;11.592;2023-04-05T14:23:08;13.30;31.70
20568;DHT22;10442;49.932;11.592;2023-04-05T14:25:36;13.30;32.10
20568;DHT22;10442;49.932;11.592;2023-04-05T14:28:04;13.30;32.10
20568;DHT22;10442;49.932;11.592;2023-04-05T14:30:31;13.30;31.50
20568;DHT22;10442;49.932;11.592;2023-04-05T14:32:59;13.30;31.70
20568;DHT22;10442;49.932;11.592;2023-04-05T14:35:26;13.40;31.70
20568;DHT22;10442;49.932;11.592;2023-04-05T14:37:54;13.40;31.80
20568;DHT22;10442;49.932;11.592;2023-04-05T14:40:22;13.40;31.70
20568;DHT22;10442;49.932;11.592;2023-04-05T14:42:49;13.50;32.00
20568;DHT22;10442;49.932;11.592;2023-04-05T14:45:17;13.50;31.90
20568;DHT22;10442;49.932;11.592;2023-04-05T14:47:44;13.50;32.30
20568;DHT22;10442;49.932;11.592;2023-04-05T14:50:12;13.50;31.80
20568;DHT22;10442;49.932;11.592;2023-04-05T14:52:40;13.50;31.90
20568;DHT22;10442;49.932;11.592;2023-04-05T14:55:07;13.50;31.60
20568;DHT22;10442;49.932;11.592;2023-04-05T14:57:35;13.60;31.30
20568;DHT22;10442;49.932;11.592;2023-04-05T15:00:04;13.60;31.90
20568;DHT22;10442;49.932;11.592;2023-04-05T15:02:34;13.60;31.90
20568;DHT22;10442;49.932;11.592;2023-04-05T15:05:03;13.60;31.40
20568;DHT22;10442;49.932;11.592;2023-04-05T15:07:32;13.70;31.30
20568;DHT22;10442;49.932;11.592;2023-04-05T15:09:59;13.70;31.60
20568;DHT22;10442;49.932;11.592;2023-04-05T15:12:27;13.70;31.30
20568;DHT22;10442;49.932;11.592;2023-04-05T15:14:56;13.80;31.00
20568;DHT22;10442;49.932;11.592;2023-04-05T15:17:23;13.80;31.10
20568;DHT22;10442;49.932;11.592;2023-04-05T15:19:51;13.80;30.40
20568;DHT22;10442;49.932;11.592;2023-04-05T15:22:19;13.80;30.60
20568;DHT22;10442;49.932;11.592;2023-04-05T15:24:49;13.80;30.80
20568;DHT22;10442;49.932;11.592;2023-04-05T15:27:17;13.80;31.10
20568;DHT22;10442;49.932;11.592;2023-04-05T15:29:44;13.80;30.80
20568;DHT22;10442;49.932;11.592;2023-04-05T15:32:11;13.80;30.70
20568;DHT22;10442;49.932;11.592;2023-04-05T15:34:39;13.90;30.30
20568;DHT22;10442;49.932;11.592;2023-04-05T15:37:07;13.80;30.70
20568;DHT22;10442;49.932;11.592;2023-04-05T15:39:34;13.80;30.80
20568;DHT22;10442;49.932;11.592;2023-04-05T15:42:02;13.80;31.00
20568;DHT22;10442;49.932;11.592;2023-04-05T15:44:29;13.80;30.80
20568;DHT22;10442;49.932;11.592;2023-04-05T15:46:57;13.70;31.10
20568;DHT22;10442;49.932;11.592;2023-04-05T15:49:24;13.70;31.00
20568;DHT22;10442;49.932;11.592;2023-04-05T15:51:52;13.70;31.10
20568;DHT22;10442;49.932;11.592;2023-04-05T15:54:19;13.70;31.00
20568;DHT22;10442;49.932;11.592;2023-04-05T15:56:47;13.70;30.70
20568;DHT22;10442;49.932;11.592;2023-04-05T15:59:15;13.60;30.60
20568;DHT22;10442;49.932;11.592;2023-04-05T16:01:42;13.60;30.90
20568;DHT22;10442;49.932;11.592;2023-04-05T16:04:10;13.60;30.70
20568;DHT22;10442;49.932;11.592;2023-04-05T16:06:38;13.50;30.90